createdAt,value
2023-12-10T00:01:03.314Z,23.9
2023-12-10T00:03:14.868Z,20.8
2023-12-10T00:06:15.756Z,14.9
2023-12-10T00:11:34.448Z,15.4
2023-12-10T00:13:52.204Z,15.6
2023-12-10T00:15:55.483Z,13.6
2023-12-10T00:16:50.284Z,17.6
2023-12-10T00:18:48.787Z,20.4
2023-12-10T00:21:26.990Z,23.7
2023-12-10T00:23:50.944Z,18.8
2023-12-10T00:26:00.736Z,20.3
2023-12-10T00:28:59.954Z,21.5
2023-12-10T00:31:44.710Z,22.9
2023-12-10T00:34:15.248Z,22.7
2023-12-10T00:38:32.722Z,14.1
2023-12-10T00:41:23.781Z,15.4
2023-12-10T00:46:22.719Z,13
2023-12-10T00:48:30.877Z,19
2023-12-10T00:54:11.001Z,17.1
2023-12-10T00:56:39.471Z,13.1
2023-12-10T00:58:53.727Z,13
2023-12-10T01:01:57.473Z,15.7
2023-12-10T01:04:46.797Z,15.1
2023-12-10T01:11:48.231Z,13.6
2023-12-10T01:14:43.720Z,13
2023-12-10T01:17:25.070Z,14.2
2023-12-10T01:19:51.760Z,18.3
2023-12-10T01:25:06.007Z,19.1
2023-12-10T01:27:53.507Z,16.2
2023-12-10T01:30:26.574Z,10.8
2023-12-10T01:32:45.332Z,17.7
2023-12-10T01:37:43.236Z,16.9
2023-12-10T01:40:22.725Z,17.3
2023-12-10T01:44:58.232Z,14.7
2023-12-10T01:47:58.344Z,12.9
2023-12-10T01:53:15.239Z,13.8
2023-12-10T01:57:34.491Z,12.4
2023-12-10T02:00:26.530Z,11.5
2023-12-10T02:05:27.278Z,10.5
2023-12-10T02:08:25.246Z,9.8
2023-12-10T02:10:34.283Z,6.6
2023-12-10T02:13:18.033Z,10.1
2023-12-10T02:22:53.284Z,9
2023-12-10T02:25:29.004Z,8.8
2023-12-10T02:27:50.314Z,8.1
2023-12-10T02:29:57.252Z,13.4
2023-12-10T02:32:53.806Z,7.8
2023-12-10T02:35:35.873Z,9.1
2023-12-10T02:43:19.519Z,8.4
2023-12-10T02:46:07.769Z,14.6
2023-12-10T02:51:01.314Z,11.7
2023-12-10T02:56:01.091Z,10.2
2023-12-10T03:00:28.231Z,17
2023-12-10T03:03:24.128Z,16.8
2023-12-10T03:06:05.084Z,16.5
2023-12-10T03:06:07.077Z,21.3
2023-12-10T03:10:44.533Z,18.3
2023-12-10T03:16:34.288Z,17.3
2023-12-10T03:19:07.782Z,23
2023-12-10T03:21:26.306Z,19
2023-12-10T03:26:24.821Z,16.5
2023-12-10T03:31:29.531Z,13.2
2023-12-10T03:33:40.364Z,19.7
2023-12-10T03:39:26.439Z,12.1
2023-12-10T03:41:57.811Z,22.7
2023-12-10T03:44:14.799Z,16.7
2023-12-10T03:46:17.290Z,18.1
2023-12-10T03:49:09.798Z,13.9
2023-12-10T03:51:47.493Z,15.4
2023-12-10T03:56:19.616Z,12.5
2023-12-10T03:59:18.040Z,20.9
2023-12-10T04:04:31.826Z,13.4
2023-12-10T04:06:47.078Z,20.4
2023-12-10T04:08:47.807Z,16.1
2023-12-10T04:11:38.199Z,19.9
2023-12-10T04:14:14.168Z,17.9
2023-12-10T04:18:42.591Z,18.5
2023-12-10T04:21:39.607Z,14.5
2023-12-10T04:26:33.558Z,9.5
2023-12-10T04:32:05.868Z,13.2
2023-12-10T04:34:54.391Z,18.7
2023-12-10T04:37:28.586Z,14.4
2023-12-10T04:41:53.579Z,10.2
2023-12-10T04:44:48.345Z,18.6
2023-12-10T04:49:54.900Z,12.7
2023-12-10T04:52:06.319Z,11.1
2023-12-10T04:55:07.570Z,11.8
2023-12-10T05:00:26.606Z,16.1
2023-12-10T05:04:48.070Z,15.7
2023-12-10T05:10:19.831Z,14.8
2023-12-10T05:14:53.820Z,11.6
2023-12-10T05:20:38.117Z,11.1
2023-12-10T05:23:08.577Z,13
2023-12-10T05:25:24.582Z,11.7
2023-12-10T05:27:26.349Z,16
2023-12-10T05:30:17.613Z,12.4
2023-12-10T05:32:54.689Z,13.4
2023-12-10T05:40:22.385Z,15.3
2023-12-10T05:45:34.099Z,8.7
2023-12-10T05:47:48.436Z,7.3
2023-12-10T05:50:52.112Z,7.7
2023-12-10T05:53:41.642Z,9.7
2023-12-10T05:58:37.094Z,8.3
2023-12-10T06:00:43.436Z,8.4
2023-12-10T06:03:39.147Z,0
2023-12-10T06:06:20.580Z,9.6
2023-12-10T06:08:47.350Z,10.3
2023-12-10T06:14:01.856Z,9.1
2023-12-10T06:16:49.477Z,8.6
2023-12-10T06:19:22.685Z,8.3
2023-12-10T06:21:41.375Z,7.4
2023-12-10T06:23:45.715Z,7.2
2023-12-10T06:26:11.337Z,23.4
2023-12-10T06:31:44.114Z,12.7
2023-12-10T06:36:55.250Z,12
2023-12-10T06:37:33.133Z,10
2023-12-10T06:44:29.380Z,10.5
2023-12-10T06:46:31.869Z,12
2023-12-10T06:52:01.675Z,7.8
2023-12-10T06:54:24.941Z,7.7
2023-12-10T06:56:33.634Z,6
2023-12-10T06:59:32.188Z,6.6
2023-12-10T07:02:16.123Z,7.8
2023-12-10T07:07:00.927Z,8.5
2023-12-10T07:09:01.626Z,9.9
2023-12-10T07:11:51.920Z,10.2
2023-12-10T07:16:49.424Z,16.2
2023-12-10T07:27:02.991Z,9.9
2023-12-10T07:29:16.138Z,9.3
2023-12-10T07:32:19.157Z,9
2023-12-10T07:35:07.660Z,8.2
2023-12-10T07:37:41.659Z,7.4
2023-12-10T07:42:06.644Z,9.1
2023-12-10T07:47:41.699Z,6.1
2023-12-10T07:52:19.212Z,13.3
2023-12-10T08:00:39.262Z,8.8
2023-12-10T08:02:57.036Z,9.9
2023-12-10T08:07:53.483Z,10.3
2023-12-10T08:12:56.283Z,10.8
2023-12-10T08:15:06.100Z,14.2
2023-12-10T08:20:49.939Z,13.3
2023-12-10T08:23:20.433Z,13.7
2023-12-10T08:27:38.201Z,10.7
2023-12-10T08:30:29.222Z,8.6
2023-12-10T08:33:06.150Z,12.3
2023-12-10T08:37:36.194Z,9.3
2023-12-10T08:40:33.771Z,10.5
2023-12-10T08:45:45.614Z,11.1
2023-12-10T08:51:03.435Z,10.7
2023-12-10T08:53:52.701Z,11.7
2023-12-10T08:56:27.737Z,14.5
2023-12-10T09:00:54.561Z,12
2023-12-10T09:03:50.030Z,15.6
2023-12-10T09:06:31.292Z,14.6
2023-12-10T09:08:57.950Z,14
2023-12-10T09:14:12.432Z,13.7
2023-12-10T09:19:33.319Z,14.5
2023-12-10T09:19:47.908Z,24
2023-12-10T09:21:51.970Z,25.1
2023-12-10T09:23:56.267Z,18
2023-12-10T09:26:49.933Z,11.6
2023-12-10T09:29:29.439Z,18.4
2023-12-10T09:31:54.493Z,18.8
2023-12-10T09:34:05.024Z,19.6
2023-12-10T09:37:05.259Z,19.1
2023-12-10T09:39:51.166Z,18.2
2023-12-10T09:42:22.202Z,13.8
2023-12-10T09:44:39.276Z,15
2023-12-10T09:49:33.971Z,12.9
2023-12-10T09:52:11.455Z,13.1
2023-12-10T09:54:34.917Z,14.9
2023-12-10T09:56:43.502Z,14.8
2023-12-10T09:59:41.710Z,13.5
2023-12-10T10:02:25.807Z,14.3
2023-12-10T10:04:55.373Z,13.5
2023-12-10T10:07:10.522Z,12.3
2023-12-10T10:09:13.979Z,11.9
2023-12-10T10:12:01.239Z,11.4
2023-12-10T10:14:36.982Z,11.8
2023-12-10T10:19:05.892Z,12.6
2023-12-10T10:22:02.065Z,15.1
2023-12-10T10:24:44.056Z,23.1
2023-12-10T10:29:25.012Z,12.7
2023-12-10T10:32:27.741Z,12.8
2023-12-10T10:35:16.298Z,19.6
2023-12-10T10:37:50.265Z,18.3
2023-12-10T10:40:09.762Z,16.3
2023-12-10T10:42:15.033Z,12.7
2023-12-10T10:45:09.724Z,13.9
2023-12-10T10:47:50.044Z,12.5
2023-12-10T10:50:18.693Z,15.8
2023-12-10T10:55:28.464Z,12.1
2023-12-10T10:58:14.978Z,15.4
2023-12-10T11:00:47.546Z,15.8
2023-12-10T11:03:04.998Z,14.1
2023-12-10T11:03:52.135Z,9.9
2023-12-10T11:05:08.251Z,16.9
2023-12-10T11:08:01.223Z,18.8
2023-12-10T11:10:39.724Z,10.6
2023-12-10T11:13:03.822Z,10.4
2023-12-10T11:15:13.474Z,13.2
2023-12-10T11:18:13.135Z,19.8
2023-12-10T11:23:29.567Z,17.3
2023-12-10T11:25:43.975Z,15.1
2023-12-10T11:30:36.527Z,17.6
2023-12-10T11:33:13.471Z,11.7
2023-12-10T11:35:35.561Z,12.8
2023-12-10T11:37:43.665Z,16
2023-12-10T11:40:40.730Z,19.5
2023-12-10T11:45:52.284Z,17.5
2023-12-10T11:46:11.575Z,25.7
2023-12-10T11:51:10.447Z,10.2
2023-12-10T11:53:59.527Z,16.4
2023-12-10T11:56:34.482Z,14
2023-12-10T11:58:54.981Z,11.1
2023-12-10T12:01:01.618Z,11.6
2023-12-10T12:03:56.527Z,15.9
2023-12-10T12:06:37.813Z,13.1
2023-12-10T12:09:04.487Z,24.7
2023-12-10T12:11:18.060Z,25.1
2023-12-10T12:14:18.847Z,15.9
2023-12-10T12:17:06.269Z,13.3
2023-12-10T12:19:39.377Z,14.7
2023-12-10T12:21:58.326Z,20.7
2023-12-10T12:26:56.052Z,16.7
2023-12-10T12:29:35.496Z,19.4
2023-12-10T12:32:12.019Z,14.5
2023-12-10T12:34:13.240Z,13.9
2023-12-10T12:37:10.989Z,15.3
2023-12-10T12:39:58.024Z,14.5
2023-12-10T12:42:28.051Z,16.3
2023-12-10T12:46:47.756Z,14.3
2023-12-10T12:48:20.688Z,9.7
2023-12-10T12:49:39.304Z,11.2
2023-12-10T12:52:16.760Z,11.8
2023-12-10T12:56:48.783Z,12.6
2023-12-10T12:59:46.999Z,13.7
2023-12-10T13:02:30.743Z,13.3
2023-12-10T13:05:00.555Z,13.7
2023-12-10T13:07:15.354Z,14
2023-12-10T13:09:15.765Z,15.9
2023-12-10T13:12:06.015Z,12.8
2023-12-10T13:14:41.772Z,12.3
2023-12-10T13:17:03.008Z,13.8
2023-12-10T13:19:10.120Z,13.4
2023-12-10T13:22:06.593Z,13.1
2023-12-10T13:24:48.553Z,12.1
2023-12-10T13:27:16.263Z,11.7
2023-12-10T13:29:29.503Z,10.3
2023-12-10T13:32:32.465Z,10.6
2023-12-10T13:35:20.622Z,11.5
2023-12-10T13:37:54.512Z,13.7
2023-12-10T13:40:14.015Z,13.8
2023-12-10T13:45:13.770Z,13
2023-12-10T13:47:34.809Z,8.4
2023-12-10T13:49:41.002Z,8.9
2023-12-10T13:52:36.624Z,13
2023-12-10T13:55:17.764Z,9.2
2023-12-10T13:57:44.860Z,11.7
2023-12-10T13:59:57.258Z,10.1
2023-12-10T14:02:59.432Z,10
2023-12-10T14:05:47.025Z,7.9
2023-12-10T14:10:39.194Z,6.7
2023-12-10T14:12:43.533Z,6.9
2023-12-10T14:15:37.644Z,8.2
2023-12-10T14:20:42.268Z,6.9
2023-12-10T14:22:53.031Z,6.5
2023-12-10T14:25:53.323Z,8.7
2023-12-10T14:31:10.658Z,7.2
2023-12-10T14:33:27.584Z,5.8
2023-12-10T14:35:30.093Z,5.5
2023-12-10T14:38:22.357Z,6.6
2023-12-10T14:43:23.282Z,6.1
2023-12-10T14:45:32.293Z,9.1
2023-12-10T14:48:30.906Z,7.6
2023-12-10T14:51:14.787Z,4.9
2023-12-10T14:53:44.581Z,7.9
2023-12-10T14:55:59.779Z,5.2
2023-12-10T14:58:00.685Z,5.7
2023-12-10T15:00:50.977Z,9.5
2023-12-10T15:10:52.496Z,12.3
2023-12-10T15:16:02.332Z,8.7
2023-12-10T15:26:41.309Z,8.5
2023-12-10T15:29:01.267Z,6.6
2023-12-10T15:31:06.437Z,7.3
2023-12-10T15:36:41.599Z,6.6
2023-12-10T15:39:07.638Z,6.4
2023-12-10T15:41:19.087Z,4.7
2023-12-10T15:44:20.391Z,7
2023-12-10T15:49:39.531Z,5.7
2023-12-10T15:51:57.487Z,6
2023-12-10T15:54:00.830Z,6.1
2023-12-10T15:59:32.619Z,0
2023-12-10T16:01:56.931Z,4.9
2023-12-10T16:07:05.998Z,4
2023-12-10T16:09:50.893Z,4.6
2023-12-10T16:12:21.431Z,6.5
2023-12-10T16:16:39.107Z,0
2023-12-10T16:34:47.068Z,4.9
2023-12-10T16:37:01.103Z,0
2023-12-10T16:45:29.356Z,5.5
2023-12-10T16:49:56.081Z,6
2023-12-10T16:55:33.120Z,5.1
2023-12-10T16:58:00.159Z,5.4
2023-12-10T17:00:12.586Z,7.5
2023-12-10T17:03:14.615Z,8.8
2023-12-10T17:06:02.313Z,6.1
2023-12-10T17:08:35.560Z,8.4
2023-12-10T17:10:54.133Z,8.9
2023-12-10T17:15:52.398Z,10.1
2023-12-10T17:20:56.893Z,8
2023-12-10T17:23:07.634Z,8.7
2023-12-10T17:26:07.946Z,12.9
2023-12-10T17:28:53.663Z,9.4
2023-12-10T17:33:42.414Z,7.9
2023-12-10T17:35:44.710Z,11.5
2023-12-10T17:41:14.353Z,8
2023-12-10T17:43:37.600Z,7.6
2023-12-10T17:45:46.358Z,10.2
2023-12-10T17:48:48.039Z,9.5
2023-12-10T17:51:28.867Z,8.5
2023-12-10T17:53:58.418Z,8.4
2023-12-10T17:56:13.608Z,7.6
2023-12-10T17:58:14.390Z,6.5
2023-12-10T18:01:04.632Z,4.1
2023-12-10T18:03:40.776Z,5.4
2023-12-10T18:06:02.110Z,0
2023-12-10T18:08:09.120Z,4.4
2023-12-10T18:11:05.617Z,0
2023-12-10T18:24:20.369Z,4
2023-12-10T18:26:54.372Z,0
2023-12-10T18:29:14.195Z,4
2023-12-10T18:31:19.526Z,0
2023-12-10T18:36:54.540Z,7.6
2023-12-10T18:39:20.461Z,6.6
2023-12-10T18:41:31.917Z,6.3
2023-12-10T18:44:32.927Z,6.2
2023-12-10T18:47:19.646Z,5.6
2023-12-10T18:49:52.106Z,11.6
2023-12-10T18:54:13.388Z,7.1
2023-12-10T18:57:06.137Z,4
2023-12-10T18:59:44.628Z,8.8
2023-12-10T19:04:18.747Z,8
2023-12-10T19:07:17.898Z,9.3
2023-12-10T19:14:49.154Z,10.7
2023-12-10T19:16:50.654Z,10.6
2023-12-10T19:22:18.696Z,8
2023-12-10T19:24:40.976Z,12.1
2023-12-10T19:26:48.921Z,8.7
2023-12-10T19:32:29.476Z,7.9
2023-12-10T19:37:12.412Z,4.9
2023-12-10T19:40:16.166Z,6.6
2023-12-10T19:43:05.419Z,4
2023-12-10T19:45:40.504Z,7.9
2023-12-10T19:50:08.751Z,9.7
2023-12-10T19:53:02.719Z,9.8
2023-12-10T19:55:43.924Z,7.2
2023-12-10T19:58:10.685Z,4.6
2023-12-10T20:00:23.229Z,8.8
2023-12-10T20:06:12.753Z,6.7
2023-12-10T20:08:45.986Z,15.3
2023-12-10T20:11:04.740Z,7.7
2023-12-10T20:13:09.018Z,12.1
2023-12-10T20:18:42.214Z,8.7
2023-12-10T20:21:07.190Z,8.6
2023-12-10T20:23:17.693Z,9.9
2023-12-10T20:29:03.785Z,11.6
2023-12-10T20:31:34.984Z,10.9
2023-12-10T20:35:54.439Z,9.4
2023-12-10T20:38:46.425Z,7.7
2023-12-10T20:41:24.249Z,12
2023-12-10T20:45:56.204Z,10.1
2023-12-10T20:48:54.743Z,10.9
2023-12-10T20:51:38.544Z,12.2
2023-12-10T20:54:07.941Z,11
2023-12-10T20:58:23.861Z,12.8
2023-12-10T21:03:49.804Z,7.2
2023-12-10T21:06:11.593Z,4
2023-12-10T21:08:18.192Z,7.7
2023-12-10T21:11:14.759Z,8.4
2023-12-10T21:13:56.767Z,7.9
2023-12-10T21:16:24.570Z,5.5
2023-12-10T21:21:40.590Z,5.5
2023-12-10T21:27:02.969Z,6.4
2023-12-10T21:29:22.455Z,5.1
2023-12-10T21:31:27.745Z,7.2
2023-12-10T21:34:22.695Z,9.8
2023-12-10T21:37:02.749Z,8.9
2023-12-10T21:39:28.874Z,11.2
2023-12-10T21:41:40.271Z,11.4
2023-12-10T21:47:28.206Z,8.1
2023-12-10T21:50:00.093Z,11
2023-12-10T21:54:20.982Z,6.8
2023-12-10T21:57:14.011Z,6.5
2023-12-10T21:59:52.474Z,10.6
2023-12-10T22:04:26.271Z,8.4
2023-12-10T22:07:25.515Z,11.4
2023-12-10T22:10:10.527Z,13.3
2023-12-10T22:14:56.723Z,9.4
2023-12-10T22:22:25.972Z,4
2023-12-10T22:24:48.276Z,0
2023-12-10T22:26:56.054Z,4.1
2023-12-10T22:29:53.509Z,0
2023-12-10T22:32:36.625Z,4.9
2023-12-10T22:35:04.988Z,0
2023-12-10T22:40:22.978Z,4.3
2023-12-10T22:43:12.381Z,7.5
2023-12-10T22:50:13.800Z,7.6
2023-12-10T22:55:50.490Z,7.3
2023-12-10T22:58:17.248Z,5.9
2023-12-10T23:03:31.606Z,6
2023-12-10T23:06:19.031Z,0
2023-12-10T23:08:51.986Z,4.5
2023-12-10T23:11:10.803Z,6.2
2023-12-10T23:16:08.912Z,4.9
2023-12-10T23:18:48.333Z,8.2
2023-12-10T23:21:13.244Z,5.6
2023-12-10T23:23:23.747Z,4.5
2023-12-10T23:26:23.741Z,6.2
2023-12-10T23:33:57.690Z,5.8
2023-12-10T23:36:00.013Z,5.2
2023-12-10T23:41:29.503Z,4.3
2023-12-10T23:43:52.812Z,8.1
2023-12-10T23:48:59.837Z,6.5
2023-12-10T23:51:43.561Z,6.7
2023-12-10T23:54:13.005Z,4
2023-12-10T23:56:28.004Z,5.8
